createdAt,value
2023-01-28T00:01:22.657Z,5.60
2023-01-28T00:03:53.091Z,6.47
2023-01-28T00:06:20.321Z,7.47
2023-01-28T00:08:47.360Z,6.13
2023-01-28T00:11:14.787Z,7.50
2023-01-28T00:13:42.169Z,8.63
2023-01-28T00:16:09.764Z,5.63
2023-01-28T00:18:36.933Z,6.07
2023-01-28T00:21:13.995Z,5.53
2023-01-28T00:23:42.354Z,4.00
2023-01-28T00:26:11.815Z,4.20
2023-01-28T00:28:38.908Z,5.07
2023-01-28T00:31:17.110Z,6.80
2023-01-28T00:33:44.749Z,4.97
2023-01-28T00:36:11.997Z,4.13
2023-01-28T00:38:39.083Z,5.23
2023-01-28T00:41:09.929Z,4.90
2023-01-28T00:43:37.584Z,5.23
2023-01-28T00:46:07.337Z,5.23
2023-01-28T00:48:34.944Z,5.10
2023-01-28T00:51:02.140Z,5.93
2023-01-28T00:53:29.570Z,4.60
2023-01-28T00:55:56.695Z,5.23
2023-01-28T00:58:26.626Z,5.60
2023-01-28T01:00:53.674Z,5.33
2023-01-28T01:03:21.130Z,4.33
2023-01-28T01:05:48.200Z,5.80
2023-01-28T01:08:15.259Z,5.13
2023-01-28T01:10:42.305Z,6.27
2023-01-28T01:13:10.124Z,5.60
2023-01-28T01:15:37.291Z,5.80
2023-01-28T01:18:04.521Z,6.10
2023-01-28T01:20:33.416Z,5.43
2023-01-28T01:23:00.545Z,7.03
2023-01-28T01:25:27.656Z,6.30
2023-01-28T01:27:54.703Z,5.77
2023-01-28T01:30:22.451Z,5.73
2023-01-28T01:32:49.608Z,5.40
2023-01-28T01:35:17.070Z,8.70
2023-01-28T01:37:45.010Z,6.27
2023-01-28T01:40:12.419Z,9.00
2023-01-28T01:42:39.591Z,6.93
2023-01-28T01:45:17.894Z,7.30
2023-01-28T01:47:45.054Z,8.63
2023-01-28T01:50:18.395Z,6.50
2023-01-28T01:52:45.803Z,9.17
2023-01-28T01:55:18.092Z,7.67
2023-01-28T01:57:46.405Z,8.33
2023-01-28T02:00:13.624Z,6.33
2023-01-28T02:02:42.364Z,8.47
2023-01-28T02:05:10.232Z,5.90
2023-01-28T02:07:37.750Z,5.80
2023-01-28T02:10:06.013Z,8.33
2023-01-28T02:12:35.903Z,6.47
2023-01-28T02:15:04.659Z,6.43
2023-01-28T02:17:32.110Z,6.17
2023-01-28T02:20:04.313Z,7.70
2023-01-28T02:22:48.363Z,5.87
2023-01-28T02:25:26.638Z,7.57
2023-01-28T02:27:53.677Z,6.13
2023-01-28T02:30:28.585Z,6.47
2023-01-28T02:32:58.399Z,6.67
2023-01-28T02:35:28.231Z,6.83
2023-01-28T02:38:01.386Z,6.77
2023-01-28T02:40:30.817Z,5.43
2023-01-28T02:42:58.363Z,8.00
2023-01-28T02:45:49.768Z,7.33
2023-01-28T02:48:17.865Z,6.77
2023-01-28T02:51:00.872Z,5.73
2023-01-28T02:53:43.249Z,7.73
2023-01-28T02:56:22.305Z,5.70
2023-01-28T02:59:27.848Z,6.87
2023-01-28T03:01:58.354Z,6.17
2023-01-28T03:04:30.485Z,7.50
2023-01-28T03:07:00.285Z,8.53
2023-01-28T03:09:27.434Z,8.70
2023-01-28T03:12:19.384Z,5.53
2023-01-28T03:15:07.093Z,5.50
2023-01-28T03:18:07.876Z,9.07
2023-01-28T03:21:09.396Z,7.47
2023-01-28T03:24:07.276Z,7.60
2023-01-28T03:26:57.651Z,5.00
2023-01-28T03:29:44.350Z,8.17
2023-01-28T03:32:30.676Z,6.37
2023-01-28T03:35:17.156Z,4.90
2023-01-28T03:37:44.470Z,7.73
2023-01-28T03:40:11.883Z,6.17
2023-01-28T03:42:38.935Z,5.73
2023-01-28T03:45:07.920Z,7.50
2023-01-28T03:47:35.021Z,6.00
2023-01-28T03:50:02.190Z,6.13
2023-01-28T03:52:33.593Z,5.27
2023-01-28T03:55:01.079Z,5.37
2023-01-28T03:57:31.279Z,6.20
2023-01-28T03:59:58.377Z,6.73
2023-01-28T04:02:27.177Z,5.67
2023-01-28T04:04:54.309Z,5.73
2023-01-28T04:07:21.537Z,6.73
2023-01-28T04:09:48.602Z,7.97
2023-01-28T04:12:15.792Z,6.37
2023-01-28T04:14:42.906Z,6.83
2023-01-28T04:17:10.546Z,5.53
2023-01-28T04:19:37.982Z,6.87
2023-01-28T04:22:06.147Z,5.50
2023-01-28T04:24:33.247Z,5.00
2023-01-28T04:27:00.395Z,5.20
2023-01-28T04:29:27.567Z,4.60
2023-01-28T04:31:54.725Z,5.10
2023-01-28T04:34:21.818Z,4.63
2023-01-28T04:36:48.884Z,5.50
2023-01-28T04:39:15.965Z,3.63
2023-01-28T04:41:43.054Z,3.03
2023-01-28T04:44:10.200Z,6.20
2023-01-28T04:46:37.300Z,5.80
2023-01-28T04:49:04.487Z,4.83
2023-01-28T04:51:31.586Z,3.93
2023-01-28T04:53:58.710Z,3.50
2023-01-28T04:56:25.762Z,4.13
2023-01-28T04:58:52.816Z,4.93
2023-01-28T05:01:19.880Z,5.37
2023-01-28T05:03:46.954Z,4.63
2023-01-28T05:06:13.998Z,4.77
2023-01-28T05:08:41.098Z,2.40
2023-01-28T05:11:08.196Z,3.97
2023-01-28T05:13:35.365Z,3.47
2023-01-28T05:16:02.407Z,3.70
2023-01-28T05:18:29.547Z,3.63
2023-01-28T05:20:56.677Z,3.53
2023-01-28T05:23:23.769Z,4.27
2023-01-28T05:25:50.873Z,4.17
2023-01-28T05:28:17.930Z,2.93
2023-01-28T05:30:45.080Z,5.00
2023-01-28T05:33:12.273Z,4.27
2023-01-28T05:35:39.402Z,4.93
2023-01-28T05:38:06.531Z,4.93
2023-01-28T05:40:33.624Z,4.40
2023-01-28T05:43:00.708Z,3.70
2023-01-28T05:45:27.985Z,2.93
2023-01-28T05:47:55.108Z,3.53
2023-01-28T05:50:22.188Z,10.17
2023-01-28T05:52:49.329Z,3.57
2023-01-28T05:55:16.619Z,4.77
2023-01-28T05:57:44.689Z,4.20
2023-01-28T06:00:12.272Z,3.70
2023-01-28T06:02:39.449Z,3.23
2023-01-28T06:05:06.686Z,4.70
2023-01-28T06:07:33.750Z,4.43
2023-01-28T06:10:00.829Z,4.47
2023-01-28T06:12:27.920Z,4.43
2023-01-28T06:14:54.972Z,4.60
2023-01-28T06:17:22.030Z,3.37
2023-01-28T06:19:49.140Z,3.73
2023-01-28T06:22:16.205Z,3.30
2023-01-28T06:24:43.283Z,2.90
2023-01-28T06:27:10.338Z,3.10
2023-01-28T06:29:37.444Z,4.30
2023-01-28T06:32:04.777Z,4.30
2023-01-28T06:34:31.969Z,5.57
2023-01-28T06:36:59.057Z,3.97
2023-01-28T06:39:27.786Z,3.17
2023-01-28T06:41:54.858Z,6.00
2023-01-28T06:44:23.442Z,4.07
2023-01-28T06:46:50.502Z,4.37
2023-01-28T06:49:17.672Z,3.50
2023-01-28T06:51:44.734Z,4.67
2023-01-28T06:54:11.807Z,3.80
2023-01-28T06:56:38.880Z,3.77
2023-01-28T06:59:06.054Z,3.33
2023-01-28T07:01:33.181Z,5.53
2023-01-28T07:04:00.248Z,3.10
2023-01-28T07:06:27.294Z,3.03
2023-01-28T07:08:54.393Z,3.43
2023-01-28T07:11:21.505Z,2.90
2023-01-28T07:13:48.606Z,2.73
2023-01-28T07:16:16.221Z,4.80
2023-01-28T07:18:43.303Z,2.70
2023-01-28T07:21:10.372Z,3.40
2023-01-28T07:23:39.638Z,4.63
2023-01-28T07:26:07.148Z,2.53
2023-01-28T07:28:34.207Z,2.20
2023-01-28T07:31:01.661Z,3.10
2023-01-28T07:33:28.829Z,4.67
2023-01-28T07:35:55.930Z,2.00
2023-01-28T07:38:23.005Z,2.43
2023-01-28T07:40:50.172Z,2.50
2023-01-28T07:43:17.249Z,2.60
2023-01-28T07:45:45.494Z,2.73
2023-01-28T07:48:14.060Z,3.87
2023-01-28T07:50:41.321Z,2.13
2023-01-28T07:53:11.890Z,2.43
2023-01-28T07:55:39.461Z,2.40
2023-01-28T07:58:07.469Z,2.73
2023-01-28T08:00:35.539Z,6.50
2023-01-28T08:03:04.128Z,3.77
2023-01-28T08:05:40.949Z,3.20
2023-01-28T08:08:09.188Z,3.03
2023-01-28T08:10:36.448Z,2.40
2023-01-28T08:13:03.732Z,2.53
2023-01-28T08:15:32.820Z,2.33
2023-01-28T08:18:01.547Z,1.80
2023-01-28T08:20:29.506Z,3.03
2023-01-28T08:23:08.596Z,3.30
2023-01-28T08:25:36.138Z,3.20
2023-01-28T08:28:03.526Z,2.40
2023-01-28T08:30:30.772Z,2.57
2023-01-28T08:32:58.598Z,2.40
2023-01-28T08:35:26.200Z,6.47
2023-01-28T08:37:53.651Z,2.93
2023-01-28T08:40:21.487Z,4.80
2023-01-28T08:42:49.400Z,3.30
2023-01-28T08:45:16.897Z,3.43
2023-01-28T08:47:53.848Z,1.90
2023-01-28T08:50:21.696Z,2.43
2023-01-28T08:52:50.976Z,4.70
2023-01-28T08:55:19.022Z,2.83
2023-01-28T08:57:46.137Z,1.80
2023-01-28T09:00:13.750Z,3.87
2023-01-28T09:02:41.179Z,7.67
2023-01-28T09:05:08.637Z,4.87
2023-01-28T09:07:36.283Z,2.73
2023-01-28T09:10:03.661Z,3.20
2023-01-28T09:12:30.752Z,2.67
2023-01-28T09:14:58.114Z,4.13
2023-01-28T09:17:25.247Z,4.73
2023-01-28T09:19:52.307Z,4.33
2023-01-28T09:22:19.626Z,3.07
2023-01-28T09:24:46.683Z,3.00
2023-01-28T09:27:13.804Z,2.70
2023-01-28T09:29:40.938Z,3.60
2023-01-28T09:32:08.097Z,3.47
2023-01-28T09:34:35.445Z,3.63
2023-01-28T09:37:02.550Z,4.57
2023-01-28T09:39:29.601Z,3.63
2023-01-28T09:42:02.392Z,4.27
2023-01-28T09:44:35.251Z,2.47
2023-01-28T09:47:08.636Z,2.60
2023-01-28T09:49:42.861Z,2.57
2023-01-28T09:52:13.846Z,3.20
2023-01-28T09:54:43.990Z,2.07
2023-01-28T09:57:24.249Z,2.17
2023-01-28T09:59:51.794Z,1.87
2023-01-28T10:02:34.008Z,2.93
2023-01-28T10:05:12.113Z,2.73
2023-01-28T10:07:39.238Z,3.07
2023-01-28T10:10:32.750Z,3.23
2023-01-28T10:13:11.972Z,4.10
2023-01-28T10:15:50.962Z,3.70
2023-01-28T10:18:22.202Z,3.27
2023-01-28T10:20:51.207Z,2.17
2023-01-28T10:23:21.195Z,2.07
2023-01-28T10:25:48.835Z,1.73
2023-01-28T10:28:24.596Z,2.63
2023-01-28T10:30:52.399Z,4.07
2023-01-28T10:33:28.549Z,2.50
2023-01-28T10:35:57.797Z,2.63
2023-01-28T10:38:42.008Z,2.87
2023-01-28T10:41:11.959Z,3.43
2023-01-28T10:43:40.952Z,2.70
2023-01-28T10:46:17.254Z,3.10
2023-01-28T10:49:03.229Z,3.50
2023-01-28T10:51:43.617Z,2.07
2023-01-28T10:54:24.132Z,2.33
2023-01-28T10:56:52.958Z,3.77
2023-01-28T10:59:33.024Z,3.23
2023-01-28T11:02:20.006Z,2.53
2023-01-28T11:04:47.102Z,1.93
2023-01-28T11:07:18.956Z,1.73
2023-01-28T11:09:47.615Z,1.73
2023-01-28T11:12:20.772Z,2.57
2023-01-28T11:14:52.263Z,3.27
2023-01-28T11:17:20.298Z,1.83
2023-01-28T11:19:47.642Z,1.93
2023-01-28T11:22:22.328Z,1.93
2023-01-28T11:24:49.536Z,3.77
2023-01-28T11:27:18.547Z,4.50
2023-01-28T11:29:45.937Z,3.37
2023-01-28T11:32:20.319Z,1.70
2023-01-28T11:34:51.677Z,3.70
2023-01-28T11:37:22.429Z,2.67
2023-01-28T11:39:49.687Z,2.27
2023-01-28T11:42:18.396Z,2.23
2023-01-28T11:44:45.697Z,2.53
2023-01-28T11:47:18.833Z,2.67
2023-01-28T11:50:04.492Z,5.30
2023-01-28T11:52:48.712Z,3.03
2023-01-28T11:55:40.649Z,4.90
2023-01-28T11:58:26.691Z,4.23
2023-01-28T12:01:12.582Z,3.27
2023-01-28T12:03:48.960Z,3.03
2023-01-28T12:06:28.071Z,3.07
2023-01-28T12:09:06.842Z,3.10
2023-01-28T12:11:52.614Z,2.63
2023-01-28T12:14:31.392Z,2.87
2023-01-28T12:16:58.491Z,1.70
2023-01-28T12:19:25.573Z,2.87
2023-01-28T12:22:02.549Z,1.73
2023-01-28T12:24:38.818Z,1.53
2023-01-28T12:27:26.115Z,7.37
2023-01-28T12:30:11.975Z,5.03
2023-01-28T12:32:41.961Z,3.60
2023-01-28T12:35:11.908Z,2.17
2023-01-28T12:37:50.939Z,2.73
2023-01-28T12:40:20.748Z,2.13
2023-01-28T12:42:47.884Z,2.10
2023-01-28T12:45:27.770Z,3.07
2023-01-28T12:47:56.943Z,8.63
2023-01-28T12:50:26.952Z,3.13
2023-01-28T12:52:59.025Z,3.50
2023-01-28T12:55:41.802Z,2.13
2023-01-28T12:58:16.650Z,2.30
2023-01-28T13:00:47.267Z,2.10
2023-01-28T13:03:37.255Z,2.43
2023-01-28T13:06:09.621Z,2.33
2023-01-28T13:08:36.728Z,2.97
2023-01-28T13:11:04.813Z,4.77
2023-01-28T13:13:39.284Z,2.43
2023-01-28T13:16:08.335Z,2.40
2023-01-28T13:18:45.805Z,1.77
2023-01-28T13:21:18.751Z,5.17
2023-01-28T13:23:50.092Z,2.60
2023-01-28T13:26:20.584Z,3.67
2023-01-28T13:28:48.982Z,2.33
2023-01-28T13:31:18.260Z,2.13
2023-01-28T13:33:49.903Z,4.30
2023-01-28T13:36:24.713Z,3.83
2023-01-28T13:39:10.387Z,7.17
2023-01-28T13:41:38.295Z,4.87
2023-01-28T13:44:05.457Z,5.20
2023-01-28T13:46:33.267Z,6.43
2023-01-28T13:49:00.559Z,4.63
2023-01-28T13:51:35.213Z,3.50
2023-01-28T13:54:09.289Z,2.40
2023-01-28T13:57:06.589Z,3.90
2023-01-28T14:00:06.049Z,5.37
2023-01-28T14:03:01.927Z,6.43
2023-01-28T14:05:47.692Z,3.23
2023-01-28T14:08:30.048Z,3.40
2023-01-28T14:11:10.287Z,8.83
2023-01-28T14:13:37.318Z,3.43
2023-01-28T14:16:04.389Z,2.57
2023-01-28T14:18:35.929Z,2.80
2023-01-28T14:21:03.906Z,3.67
2023-01-28T14:23:32.354Z,6.40
2023-01-28T14:25:59.416Z,3.93
2023-01-28T14:28:40.695Z,7.00
2023-01-28T14:31:15.132Z,8.83
2023-01-28T14:33:42.596Z,4.80
2023-01-28T14:36:12.778Z,10.47
2023-01-28T14:38:41.349Z,10.57
2023-01-28T14:41:08.823Z,2.27
2023-01-28T14:43:37.188Z,4.20
2023-01-28T14:46:05.116Z,2.50
2023-01-28T14:48:38.313Z,5.60
2023-01-28T14:51:34.379Z,2.23
2023-01-28T14:54:13.491Z,2.03
2023-01-28T14:56:59.243Z,2.33
2023-01-28T14:59:28.908Z,2.60
2023-01-28T15:01:57.432Z,2.90
2023-01-28T15:04:25.986Z,2.40
2023-01-28T15:06:53.395Z,3.57
2023-01-28T15:09:20.646Z,4.93
2023-01-28T15:11:50.372Z,2.03
2023-01-28T15:14:23.295Z,3.27
2023-01-28T15:16:51.012Z,2.13
2023-01-28T15:19:18.223Z,3.30
2023-01-28T15:21:46.320Z,2.47
2023-01-28T15:24:17.211Z,2.10
2023-01-28T15:26:47.412Z,6.90
2023-01-28T15:29:33.014Z,1.43
2023-01-28T15:32:00.382Z,2.63
2023-01-28T15:34:31.003Z,1.90
2023-01-28T15:36:58.893Z,1.73
2023-01-28T15:39:27.121Z,4.33
2023-01-28T15:41:56.670Z,3.43
2023-01-28T15:44:29.502Z,2.80
2023-01-28T15:47:00.374Z,3.73
2023-01-28T15:49:29.659Z,2.10
2023-01-28T15:51:56.763Z,2.30
2023-01-28T15:54:24.813Z,4.30
2023-01-28T15:56:51.981Z,3.37
2023-01-28T15:59:31.103Z,1.70
2023-01-28T16:02:17.120Z,4.13
2023-01-28T16:04:44.197Z,3.37
2023-01-28T16:07:11.309Z,1.70
2023-01-28T16:09:38.423Z,2.93
2023-01-28T16:12:07.031Z,2.77
2023-01-28T16:14:40.126Z,1.93
2023-01-28T16:17:08.288Z,2.20
2023-01-28T16:19:40.649Z,3.47
2023-01-28T16:22:08.738Z,2.17
2023-01-28T16:24:36.476Z,2.67
2023-01-28T16:27:05.513Z,2.83
2023-01-28T16:29:32.649Z,5.73
2023-01-28T16:32:01.130Z,3.33
2023-01-28T16:34:28.340Z,2.50
2023-01-28T16:37:01.805Z,2.67
2023-01-28T16:39:30.241Z,2.30
2023-01-28T16:41:57.320Z,2.00
2023-01-28T16:44:24.392Z,2.53
2023-01-28T16:46:51.512Z,2.27
2023-01-28T16:49:18.695Z,2.30
2023-01-28T16:51:45.757Z,1.90
2023-01-28T16:54:15.238Z,1.63
2023-01-28T16:56:45.586Z,3.43
2023-01-28T16:59:14.751Z,1.60
2023-01-28T17:01:43.896Z,1.40
2023-01-28T17:04:12.755Z,3.63
2023-01-28T17:06:42.746Z,1.63
2023-01-28T17:09:10.854Z,1.93
2023-01-28T17:11:39.617Z,1.57
2023-01-28T17:14:06.993Z,2.90
2023-01-28T17:16:34.220Z,3.23
2023-01-28T17:19:01.559Z,1.93
2023-01-28T17:21:28.603Z,2.30
2023-01-28T17:23:58.105Z,2.63
2023-01-28T17:26:25.356Z,2.70
2023-01-28T17:28:53.641Z,2.40
2023-01-28T17:31:21.027Z,5.00
2023-01-28T17:33:48.202Z,5.07
2023-01-28T17:36:15.295Z,2.60
2023-01-28T17:38:44.951Z,4.43
2023-01-28T17:41:13.343Z,2.07
2023-01-28T17:43:40.418Z,3.07
2023-01-28T17:46:11.124Z,3.77
2023-01-28T17:48:38.208Z,3.77
2023-01-28T17:51:05.356Z,2.80
2023-01-28T17:53:32.462Z,5.67
2023-01-28T17:55:59.637Z,10.83
2023-01-28T17:58:26.752Z,5.43
2023-01-28T18:00:53.977Z,4.37
2023-01-28T18:03:21.079Z,6.23
2023-01-28T18:05:57.009Z,6.17
2023-01-28T18:08:24.156Z,6.27
2023-01-28T18:10:51.468Z,27.63
2023-01-28T18:13:18.516Z,18.30
2023-01-28T18:15:45.613Z,8.33
2023-01-28T18:18:12.678Z,6.77
2023-01-28T18:20:39.860Z,6.77
2023-01-28T18:23:06.915Z,9.83
2023-01-28T18:25:34.051Z,6.87
2023-01-28T18:28:01.134Z,5.00
2023-01-28T18:30:30.058Z,3.97
2023-01-28T18:32:57.115Z,4.83
2023-01-28T18:35:24.220Z,4.43
2023-01-28T18:37:51.271Z,5.70
2023-01-28T18:40:18.430Z,8.13
2023-01-28T18:42:45.515Z,6.27
2023-01-28T18:45:12.647Z,7.83
2023-01-28T18:47:39.748Z,5.43
2023-01-28T18:50:07.146Z,6.47
2023-01-28T18:52:34.246Z,8.20
2023-01-28T18:55:01.296Z,5.83
2023-01-28T18:57:28.361Z,6.30
2023-01-28T18:59:56.218Z,6.00
2023-01-28T19:02:23.372Z,6.57
2023-01-28T19:04:50.469Z,10.40
2023-01-28T19:07:17.588Z,6.70
2023-01-28T19:09:44.732Z,7.13
2023-01-28T19:12:11.868Z,9.23
2023-01-28T19:14:38.911Z,8.30
2023-01-28T19:17:06.015Z,10.23
2023-01-28T19:19:33.129Z,7.23
2023-01-28T19:22:00.230Z,8.47
2023-01-28T19:24:27.384Z,8.93
2023-01-28T19:26:54.495Z,7.80
2023-01-28T19:29:21.531Z,12.83
2023-01-28T19:31:49.333Z,9.10
2023-01-28T19:34:16.646Z,7.40
2023-01-28T19:36:43.691Z,10.10
2023-01-28T19:39:12.230Z,10.33
2023-01-28T19:41:39.333Z,8.67
2023-01-28T19:44:06.482Z,7.77
2023-01-28T19:46:35.910Z,8.87
2023-01-28T19:49:03.920Z,9.67
2023-01-28T19:51:31.732Z,9.87
2023-01-28T19:53:58.858Z,8.47
2023-01-28T19:56:26.851Z,8.73
2023-01-28T19:58:54.357Z,8.27
2023-01-28T20:01:23.551Z,8.20
2023-01-28T20:03:52.610Z,11.20
2023-01-28T20:06:19.733Z,10.43
2023-01-28T20:08:52.194Z,11.07
2023-01-28T20:11:19.731Z,15.00
2023-01-28T20:13:47.467Z,10.90
2023-01-28T20:16:20.740Z,8.30
2023-01-28T20:18:52.121Z,11.27
2023-01-28T20:21:19.445Z,16.43
2023-01-28T20:23:47.400Z,17.50
2023-01-28T20:26:14.544Z,11.93
2023-01-28T20:28:41.717Z,10.87
2023-01-28T20:31:10.153Z,10.03
2023-01-28T20:33:37.495Z,13.33
2023-01-28T20:36:05.746Z,9.20
2023-01-28T20:38:36.867Z,9.73
2023-01-28T20:41:11.824Z,8.97
2023-01-28T20:43:39.901Z,9.03
2023-01-28T20:46:07.820Z,6.83
2023-01-28T20:48:35.144Z,7.93
2023-01-28T20:51:09.062Z,8.83
2023-01-28T20:53:36.318Z,7.03
2023-01-28T20:56:03.734Z,8.43
2023-01-28T20:58:31.399Z,7.80
2023-01-28T21:00:58.841Z,14.17
2023-01-28T21:03:26.160Z,7.53
2023-01-28T21:05:53.309Z,9.57
2023-01-28T21:08:20.382Z,7.87
2023-01-28T21:10:47.506Z,8.60
2023-01-28T21:13:15.404Z,11.03
2023-01-28T21:15:51.197Z,9.13
2023-01-28T21:18:18.318Z,10.10
2023-01-28T21:20:45.468Z,11.30
2023-01-28T21:23:14.768Z,8.83
2023-01-28T21:25:46.995Z,8.60
2023-01-28T21:28:14.682Z,9.30
2023-01-28T21:30:41.885Z,9.03
2023-01-28T21:33:09.415Z,7.93
2023-01-28T21:35:37.181Z,10.57
2023-01-28T21:38:04.365Z,8.97
2023-01-28T21:40:31.891Z,8.90
2023-01-28T21:42:58.951Z,8.77
2023-01-28T21:45:26.181Z,12.77
2023-01-28T21:47:54.248Z,12.07
2023-01-28T21:50:21.763Z,8.93
2023-01-28T21:52:49.476Z,11.20
2023-01-28T21:55:16.782Z,14.47
2023-01-28T21:57:43.892Z,8.83
2023-01-28T22:00:11.298Z,10.67
2023-01-28T22:02:38.400Z,11.03
2023-01-28T22:05:05.971Z,9.93
2023-01-28T22:07:33.163Z,9.03
2023-01-28T22:10:00.222Z,11.73
2023-01-28T22:12:28.110Z,9.10
2023-01-28T22:14:55.282Z,8.23
2023-01-28T22:17:22.411Z,7.77
2023-01-28T22:19:49.566Z,9.33
2023-01-28T22:22:17.066Z,7.77
2023-01-28T22:24:44.529Z,9.90
2023-01-28T22:27:11.702Z,9.03
2023-01-28T22:29:38.780Z,10.23
2023-01-28T22:32:05.856Z,8.90
2023-01-28T22:34:32.971Z,7.20
2023-01-28T22:37:00.035Z,10.70
2023-01-28T22:39:27.137Z,9.50
2023-01-28T22:41:55.070Z,12.27
2023-01-28T22:44:22.124Z,10.23
2023-01-28T22:46:49.301Z,9.70
2023-01-28T22:49:16.475Z,9.17
2023-01-28T22:51:43.717Z,12.03
2023-01-28T22:54:13.601Z,9.43
2023-01-28T22:56:40.795Z,6.60
2023-01-28T22:59:07.833Z,7.37
2023-01-28T23:01:36.477Z,8.73
2023-01-28T23:04:03.584Z,7.13
2023-01-28T23:06:31.062Z,6.80
2023-01-28T23:08:58.360Z,9.20
2023-01-28T23:11:27.319Z,8.27
2023-01-28T23:14:14.106Z,7.33
2023-01-28T23:17:00.167Z,8.00
2023-01-28T23:19:45.943Z,5.83
2023-01-28T23:22:36.971Z,8.40
2023-01-28T23:25:04.084Z,7.77
2023-01-28T23:27:31.714Z,11.50
2023-01-28T23:29:58.783Z,6.73
2023-01-28T23:32:26.042Z,6.47
2023-01-28T23:34:53.147Z,6.67
2023-01-28T23:37:20.273Z,7.83
2023-01-28T23:39:47.333Z,6.33
2023-01-28T23:42:14.485Z,7.67
2023-01-28T23:44:41.742Z,8.50
2023-01-28T23:47:08.950Z,6.00
2023-01-28T23:49:36.326Z,8.27
2023-01-28T23:52:06.543Z,7.87
2023-01-28T23:54:33.913Z,6.77
2023-01-28T23:57:01.530Z,8.43
2023-01-28T23:59:28.582Z,6.93
